Time;durP1;ratioP1;P1;durP2;ratioP2;P2;SDS_P1;SDS_P2;PMS_P1;PMS_P2;Temp;Humidity;BMP_temperature;BMP_pressure;BME280_temperature;BME280_humidity;BME280_pressure;Samples;Min_cycle;Max_cycle;Signal;HPM_P1;HPM_P2
2021/11/11 00:01:20;;;;;;;30.60;17.57;;;1.60;99.90;;;;;;1968259;72;21060;-76
2021/11/11 00:03:46;;;;;;;26.62;17.23;;;1.50;99.90;;;;;;1968175;72;21191;-77
2021/11/11 00:06:12;;;;;;;29.50;17.45;;;1.60;99.90;;;;;;1972595;71;21135;-78
2021/11/11 00:08:39;;;;;;;26.68;17.23;;;1.60;99.90;;;;;;1976832;70;21058;-78
2021/11/11 00:11:05;;;;;;;22.62;16.50;;;1.60;99.90;;;;;;1979329;70;21455;-76
2021/11/11 00:13:31;;;;;;;31.62;16.35;;;1.60;99.90;;;;;;1982331;71;21470;-77
2021/11/11 00:15:57;;;;;;;22.82;15.15;;;1.50;99.90;;;;;;1987888;71;21519;-76
2021/11/11 00:18:23;;;;;;;32.95;17.02;;;1.40;99.90;;;;;;1986408;71;21055;-77
2021/11/11 00:20:49;;;;;;;33.95;16.70;;;1.30;99.90;;;;;;1973446;71;21043;-77
2021/11/11 00:23:15;;;;;;;29.92;17.70;;;1.40;99.90;;;;;;1977329;71;21054;-77
2021/11/11 00:25:42;;;;;;;34.70;18.17;;;1.50;99.90;;;;;;1975989;71;21075;-76
2021/11/11 00:28:08;;;;;;;39.78;17.87;;;1.50;99.90;;;;;;1965688;72;21110;-77
2021/11/11 00:30:34;;;;;;;31.02;16.67;;;1.50;99.90;;;;;;1964932;70;21137;-77
2021/11/11 00:33:00;;;;;;;25.72;17.50;;;1.40;99.90;;;;;;1967999;71;21041;-77
2021/11/11 00:35:26;;;;;;;28.47;18.23;;;1.40;99.90;;;;;;1970427;70;21117;-76
2021/11/11 00:37:52;;;;;;;30.62;18.82;;;1.30;99.90;;;;;;1974341;72;21141;-76
2021/11/11 00:40:19;;;;;;;27.42;17.02;;;1.30;99.90;;;;;;1990591;71;21576;-76
2021/11/11 00:42:45;;;;;;;34.18;18.02;;;1.40;99.90;;;;;;1982973;70;21478;-76
2021/11/11 00:45:12;;;;;;;29.30;17.80;;;1.40;99.90;;;;;;1977345;70;21074;-76
2021/11/11 00:47:38;;;;;;;26.62;17.23;;;1.40;99.90;;;;;;1983568;71;21141;-77
2021/11/11 00:50:04;;;;;;;32.63;17.40;;;1.40;99.90;;;;;;1990907;72;21412;-78
2021/11/11 00:52:31;;;;;;;25.82;17.23;;;1.30;99.90;;;;;;1967294;71;21548;-76
2021/11/11 00:54:58;;;;;;;27.17;17.92;;;1.30;99.90;;;;;;1966356;71;21138;-76
2021/11/11 00:57:24;;;;;;;30.80;16.45;;;1.30;99.90;;;;;;1972984;71;21451;-77
2021/11/11 00:59:50;;;;;;;24.27;16.95;;;1.20;99.90;;;;;;1981750;72;21519;-76
2021/11/11 01:02:16;;;;;;;32.55;15.95;;;1.20;99.90;;;;;;1977293;71;21055;-76
2021/11/11 01:04:42;;;;;;;32.93;18.05;;;1.20;99.90;;;;;;1984003;71;21076;-77
2021/11/11 01:07:08;;;;;;;24.70;16.27;;;1.20;99.90;;;;;;1967997;71;21662;-78
2021/11/11 01:09:34;;;;;;;25.80;15.38;;;1.10;99.90;;;;;;1993479;72;21424;-76
2021/11/11 01:12:01;;;;;;;29.50;16.62;;;1.10;99.90;;;;;;1978323;71;21020;-77
2021/11/11 01:14:27;;;;;;;22.82;16.55;;;1.10;99.90;;;;;;1983548;71;21046;-76
2021/11/11 01:16:53;;;;;;;26.70;16.25;;;1.10;99.90;;;;;;1972805;71;21129;-77
2021/11/11 01:19:19;;;;;;;25.90;16.67;;;1.20;99.90;;;;;;1976831;71;21150;-77
2021/11/11 01:21:46;;;;;;;27.20;17.57;;;1.20;99.90;;;;;;1972726;72;21068;-77
2021/11/11 01:24:12;;;;;;;23.95;16.52;;;1.20;99.90;;;;;;1967163;71;21058;-78
2021/11/11 01:26:38;;;;;;;26.17;17.32;;;1.10;99.90;;;;;;1982895;70;21207;-77
2021/11/11 01:29:04;;;;;;;31.60;17.85;;;1.10;99.90;;;;;;1986550;71;21058;-76
2021/11/11 01:31:30;;;;;;;25.57;16.65;;;1.10;99.90;;;;;;1966541;71;21068;-77
2021/11/11 01:33:56;;;;;;;27.20;16.95;;;1.10;99.90;;;;;;1968028;72;21161;-77
2021/11/11 01:36:22;;;;;;;24.77;16.07;;;1.20;99.90;;;;;;1975673;71;21494;-76
2021/11/11 01:38:49;;;;;;;26.57;17.27;;;1.10;99.90;;;;;;1982974;71;21537;-76
2021/11/11 01:41:15;;;;;;;32.75;19.05;;;1.20;99.90;;;;;;1977971;70;21416;-76
2021/11/11 01:43:41;;;;;;;29.20;17.65;;;1.10;99.90;;;;;;1965382;71;21480;-76
2021/11/11 01:46:07;;;;;;;31.37;20.48;;;1.10;99.90;;;;;;1980953;71;21050;-76
2021/11/11 01:48:33;;;;;;;41.48;21.42;;;1.20;99.90;;;;;;1979077;71;21076;-76
2021/11/11 01:51:00;;;;;;;34.67;21.20;;;1.20;99.90;;;;;;1986176;71;21051;-76
2021/11/11 01:53:26;;;;;;;38.10;21.25;;;1.30;99.90;;;;;;1971597;71;21157;-75
2021/11/11 01:55:52;;;;;;;49.38;23.75;;;1.30;99.90;;;;;;1994007;70;21124;-76
2021/11/11 01:58:18;;;;;;;46.08;25.92;;;1.40;99.90;;;;;;1994807;70;21098;-77
2021/11/11 02:00:44;;;;;;;56.77;24.30;;;1.40;99.90;;;;;;1980017;71;21126;-76
2021/11/11 02:03:11;;;;;;;64.85;25.82;;;1.50;99.90;;;;;;1977886;71;21110;-77
2021/11/11 02:05:37;;;;;;;99.22;26.05;;;1.50;99.90;;;;;;1985396;72;21183;-75
2021/11/11 02:08:03;;;;;;;54.27;26.17;;;1.50;99.90;;;;;;1974533;71;21151;-77
2021/11/11 02:10:30;;;;;;;54.13;26.30;;;1.50;99.90;;;;;;1967693;71;21206;-77
2021/11/11 02:12:56;;;;;;;65.97;26.97;;;1.40;99.90;;;;;;1977163;71;21079;-77
2021/11/11 02:15:22;;;;;;;56.25;26.87;;;1.40;99.90;;;;;;1988391;71;21102;-77
2021/11/11 02:17:48;;;;;;;61.58;27.52;;;1.40;99.90;;;;;;1993682;71;21160;-75
2021/11/11 02:20:15;;;;;;;63.55;28.00;;;1.50;99.90;;;;;;1978407;70;21143;-76
2021/11/11 02:22:41;;;;;;;106.20;28.15;;;1.50;99.90;;;;;;1982982;71;21070;-76
2021/11/11 02:25:07;;;;;;;70.62;28.12;;;1.50;99.90;;;;;;1988062;70;21054;-77
2021/11/11 02:27:33;;;;;;;69.27;28.40;;;1.50;99.90;;;;;;1982003;70;21124;-77
2021/11/11 02:29:59;;;;;;;64.45;26.10;;;1.50;99.90;;;;;;1961745;71;21094;-77
2021/11/11 02:32:25;;;;;;;90.60;25.92;;;1.50;99.90;;;;;;1967410;71;21072;-77
2021/11/11 02:34:52;;;;;;;90.90;27.50;;;1.40;99.90;;;;;;1986070;72;21131;-77
2021/11/11 02:37:18;;;;;;;58.52;26.48;;;1.40;99.90;;;;;;1980299;71;21115;-75
2021/11/11 02:39:44;;;;;;;97.90;28.23;;;1.40;99.90;;;;;;1988461;72;21442;-75
2021/11/11 02:42:10;;;;;;;48.40;26.02;;;1.40;99.90;;;;;;1962192;72;21542;-76
2021/11/11 02:44:36;;;;;;;52.40;25.30;;;1.40;99.90;;;;;;1968551;72;21125;-75
2021/11/11 02:47:02;;;;;;;49.60;26.45;;;1.60;99.90;;;;;;1982338;71;21059;-76
2021/11/11 02:49:28;;;;;;;67.00;27.98;;;1.60;99.90;;;;;;1971494;71;21117;-77
2021/11/11 02:51:55;;;;;;;49.25;26.35;;;1.50;99.90;;;;;;1974287;71;21063;-77
2021/11/11 02:54:21;;;;;;;58.00;26.62;;;1.40;99.90;;;;;;1982152;71;21137;-77
2021/11/11 02:56:47;;;;;;;42.50;23.52;;;1.40;99.90;;;;;;1993655;70;21112;-74
2021/11/11 02:59:13;;;;;;;48.28;25.55;;;1.50;99.90;;;;;;1967658;71;21169;-77
2021/11/11 03:01:39;;;;;;;41.60;24.25;;;1.40;99.90;;;;;;1951719;70;21071;-77
2021/11/11 03:04:05;;;;;;;41.42;23.32;;;1.40;99.90;;;;;;1983034;71;21132;-76
2021/11/11 03:06:31;;;;;;;39.53;24.20;;;1.40;99.90;;;;;;1983521;71;21148;-77
2021/11/11 03:08:57;;;;;;;44.23;23.77;;;1.30;99.90;;;;;;1967154;71;21072;-76
2021/11/11 03:11:27;;;;;;;47.90;25.55;;;1.30;99.90;;;;;;1980895;71;21585;-77
2021/11/11 03:13:51;;;;;;;47.93;25.12;;;1.40;99.90;;;;;;1993237;72;21062;-76
2021/11/11 03:16:17;;;;;;;40.73;24.25;;;1.30;99.90;;;;;;1981385;71;21051;-75
2021/11/11 03:18:44;;;;;;;45.55;24.12;;;1.30;99.90;;;;;;1976773;72;21045;-75
2021/11/11 03:21:10;;;;;;;39.38;23.60;;;1.40;99.90;;;;;;1990431;71;21054;-76
2021/11/11 03:23:36;;;;;;;42.25;24.57;;;1.30;99.90;;;;;;1983350;71;21136;-77
2021/11/11 03:26:02;;;;;;;36.45;22.98;;;1.30;99.90;;;;;;1988105;71;21454;-76
2021/11/11 03:28:28;;;;;;;42.93;24.85;;;1.30;99.90;;;;;;1976136;72;21555;-76
2021/11/11 03:30:54;;;;;;;41.18;24.40;;;1.40;99.90;;;;;;1975112;70;21427;-75
2021/11/11 03:33:20;;;;;;;35.98;23.77;;;1.30;99.90;;;;;;1978389;71;21458;-76
2021/11/11 03:35:46;;;;;;;47.20;23.67;;;1.30;99.90;;;;;;1983499;71;21615;-76
2021/11/11 03:38:13;;;;;;;40.12;24.15;;;1.20;99.90;;;;;;1987982;70;21136;-76
2021/11/11 03:40:39;;;;;;;47.98;23.55;;;1.30;99.90;;;;;;1982922;71;21195;-77
2021/11/11 03:43:06;;;;;;;40.33;23.70;;;1.20;99.90;;;;;;1993613;70;21050;-76
2021/11/11 03:45:33;;;;;;;33.78;21.65;;;1.20;99.90;;;;;;1979392;71;21078;-77
2021/11/11 03:47:59;;;;;;;36.13;21.90;;;1.20;99.90;;;;;;1972690;71;21098;-76
2021/11/11 03:50:25;;;;;;;37.17;21.65;;;1.10;99.90;;;;;;1968437;70;21154;-75
2021/11/11 03:52:51;;;;;;;32.70;22.22;;;1.10;99.90;;;;;;1992035;71;21124;-77
2021/11/11 03:55:18;;;;;;;37.05;22.80;;;1.10;99.90;;;;;;1974778;71;21070;-76
2021/11/11 03:57:45;;;;;;;43.92;23.30;;;1.10;99.90;;;;;;1979782;71;21079;-77
2021/11/11 04:00:11;;;;;;;35.92;21.17;;;1.00;99.90;;;;;;1971431;72;21031;-76
2021/11/11 04:02:37;;;;;;;39.25;22.58;;;1.10;99.90;;;;;;1990408;71;21055;-76
2021/11/11 04:05:03;;;;;;;38.00;23.40;;;1.10;99.90;;;;;;1991393;70;21120;-76
2021/11/11 04:07:30;;;;;;;42.27;23.10;;;1.00;99.90;;;;;;1974552;71;21496;-76
2021/11/11 04:09:56;;;;;;;38.53;22.32;;;1.10;99.90;;;;;;1981073;70;21137;-75
2021/11/11 04:12:22;;;;;;;33.13;22.10;;;1.10;99.90;;;;;;1963079;71;21056;-76
2021/11/11 04:14:48;;;;;;;35.30;23.30;;;1.10;99.90;;;;;;1962784;71;21048;-76
2021/11/11 04:17:14;;;;;;;33.40;21.30;;;1.10;99.90;;;;;;1963006;72;21064;-75
2021/11/11 04:19:40;;;;;;;45.52;22.05;;;1.10;99.90;;;;;;1971509;72;21121;-76
2021/11/11 04:22:06;;;;;;;38.95;22.82;;;1.10;99.90;;;;;;1968255;71;21062;-76
2021/11/11 04:24:33;;;;;;;40.58;22.95;;;1.10;99.90;;;;;;1980927;71;21076;-75
2021/11/11 04:27:09;;;;;;;37.10;23.47;;;1.10;99.90;;;;;;1969364;72;21491;-75
2021/11/11 04:29:32;;;;;;;37.38;22.98;;;1.10;99.90;;;;;;1972057;71;21085;-76
2021/11/11 04:31:59;;;;;;;40.73;24.32;;;1.10;99.90;;;;;;1965101;71;21189;-76
2021/11/11 04:34:25;;;;;;;32.83;20.72;;;1.10;99.90;;;;;;1982320;71;21062;-77
2021/11/11 04:47:50;;;;;;;36.75;21.70;;;1.20;99.90;;;;;;1967240;71;21075;-77
2021/11/11 05:01:20;;;;;;;47.27;25.17;;;1.20;99.90;;;;;;1978420;72;21452;-76
2021/11/11 05:03:24;;;;;;;65.28;26.50;;;1.20;99.90;;;;;;1979327;72;21037;-77
2021/11/11 05:05:46;;;;;;;64.65;25.75;;;1.10;99.90;;;;;;1966698;72;21079;-76
2021/11/11 05:08:12;;;;;;;58.78;29.07;;;1.20;99.90;;;;;;1975793;70;21246;-77
2021/11/11 05:13:23;;;;;;;52.85;27.45;;;1.20;99.90;;;;;;1971233;70;21094;-78
2021/11/11 05:15:50;;;;;;;63.70;26.95;;;1.10;99.90;;;;;;1967060;72;21458;-76
2021/11/11 05:18:16;;;;;;;53.52;27.15;;;1.10;99.90;;;;;;1975808;70;21489;-77
2021/11/11 05:20:42;;;;;;;48.05;27.50;;;1.10;99.90;;;;;;1958476;72;21636;-76
2021/11/11 05:23:08;;;;;;;46.40;26.15;;;1.20;99.90;;;;;;1961773;71;21458;-77
2021/11/11 05:25:34;;;;;;;47.93;26.77;;;1.10;99.90;;;;;;1972173;72;21479;-75
2021/11/11 05:28:00;;;;;;;49.80;26.55;;;1.10;99.90;;;;;;1954500;72;21056;-78
2021/11/11 05:30:27;;;;;;;48.75;24.75;;;1.10;99.90;;;;;;1980108;70;21134;-76
2021/11/11 05:32:54;;;;;;;42.17;23.47;;;1.20;99.90;;;;;;1980767;70;21140;-77
2021/11/11 05:35:20;;;;;;;42.65;23.85;;;1.20;99.90;;;;;;1958899;71;21035;-76
2021/11/11 05:37:48;;;;;;;48.10;24.98;;;1.20;99.90;;;;;;1976649;72;21544;-77
2021/11/11 05:40:14;;;;;;;41.75;24.85;;;1.20;99.90;;;;;;1979126;71;21080;-76
2021/11/11 05:42:40;;;;;;;50.80;24.65;;;1.20;99.90;;;;;;1973707;70;21530;-77
2021/11/11 05:45:06;;;;;;;43.70;24.70;;;1.20;99.90;;;;;;1955413;70;21060;-77
2021/11/11 05:47:34;;;;;;;71.70;24.27;;;1.20;99.90;;;;;;1970457;71;21075;-77
2021/11/11 05:50:00;;;;;;;44.73;23.87;;;1.20;99.90;;;;;;1978518;70;21075;-77
2021/11/11 05:52:26;;;;;;;38.35;24.27;;;1.10;99.90;;;;;;1976048;71;21050;-75
2021/11/11 05:54:52;;;;;;;42.85;25.37;;;1.20;99.90;;;;;;1956297;71;21540;-76
2021/11/11 05:57:18;;;;;;;44.93;23.90;;;1.10;99.90;;;;;;1977250;70;21462;-76
2021/11/11 05:59:45;;;;;;;50.80;23.32;;;1.10;99.90;;;;;;1972341;70;21562;-76
2021/11/11 06:02:14;;;;;;;77.75;23.18;;;1.10;99.90;;;;;;1967574;71;21479;-76
2021/11/11 06:04:40;;;;;;;87.33;22.82;;;1.00;99.90;;;;;;1961965;70;21265;-78
2021/11/11 06:07:07;;;;;;;66.70;23.32;;;0.90;99.90;;;;;;1972020;70;21062;-78
2021/11/11 06:09:33;;;;;;;63.40;24.87;;;1.00;99.90;;;;;;1974791;70;21054;-78
2021/11/11 06:12:01;;;;;;;91.55;24.98;;;1.10;99.90;;;;;;1973085;72;21276;-77
2021/11/11 06:14:27;;;;;;;78.28;25.20;;;1.00;99.90;;;;;;1972110;71;21119;-78
2021/11/11 06:16:53;;;;;;;41.45;23.73;;;1.00;99.90;;;;;;1954853;71;21216;-76
2021/11/11 06:19:19;;;;;;;36.53;24.52;;;1.10;99.90;;;;;;1983150;72;21194;-76
2021/11/11 06:21:45;;;;;;;57.65;23.40;;;1.20;99.90;;;;;;1985235;70;21128;-76
2021/11/11 06:24:11;;;;;;;46.13;23.85;;;1.20;99.90;;;;;;1983987;71;21031;-78
2021/11/11 06:26:37;;;;;;;56.73;24.10;;;1.20;99.90;;;;;;1981977;70;21463;-74
2021/11/11 06:29:03;;;;;;;47.20;25.62;;;1.20;99.90;;;;;;1969399;70;21551;-76
2021/11/11 06:31:30;;;;;;;48.68;25.17;;;1.30;99.90;;;;;;1956907;72;21495;-77
2021/11/11 06:33:56;;;;;;;42.93;26.95;;;1.40;99.90;;;;;;1973577;70;21485;-75
2021/11/11 06:36:22;;;;;;;38.23;23.70;;;1.30;99.90;;;;;;1978474;71;21062;-76
2021/11/11 06:38:48;;;;;;;38.40;22.32;;;1.40;99.90;;;;;;1962496;70;21198;-75
2021/11/11 06:41:14;;;;;;;36.60;21.70;;;1.40;99.90;;;;;;1971040;71;21148;-74
2021/11/11 06:43:40;;;;;;;33.67;20.85;;;1.40;99.90;;;;;;1966253;71;21090;-74
2021/11/11 06:46:07;;;;;;;31.50;19.92;;;1.50;99.90;;;;;;1971451;70;21145;-75
2021/11/11 06:48:33;;;;;;;29.95;20.15;;;1.40;99.90;;;;;;1961793;72;21129;-74
2021/11/11 06:50:59;;;;;;;29.85;20.08;;;1.40;99.90;;;;;;1967124;70;21136;-75
2021/11/11 06:53:26;;;;;;;28.15;18.73;;;1.50;99.90;;;;;;1958910;72;21109;-75
2021/11/11 06:55:54;;;;;;;32.80;19.60;;;1.60;99.90;;;;;;1969301;72;21033;-75
2021/11/11 06:58:22;;;;;;;38.73;20.08;;;1.60;99.90;;;;;;1970931;71;21092;-76
2021/11/11 07:00:48;;;;;;;31.75;18.92;;;1.50;99.90;;;;;;1979340;70;21142;-76
2021/11/11 07:03:14;;;;;;;26.07;17.60;;;1.50;99.90;;;;;;1982107;70;21070;-74
2021/11/11 07:05:40;;;;;;;28.75;17.52;;;1.50;99.90;;;;;;1966978;71;21050;-76
2021/11/11 07:08:10;;;;;;;29.32;17.23;;;1.40;99.90;;;;;;1963442;71;21033;-75
2021/11/11 07:10:34;;;;;;;24.72;16.23;;;1.20;99.90;;;;;;1978376;70;21504;-76
2021/11/11 07:13:00;;;;;;;24.20;16.57;;;1.20;99.90;;;;;;1974771;70;21064;-74
2021/11/11 07:15:26;;;;;;;24.63;17.10;;;1.20;99.90;;;;;;1980576;70;21071;-74
2021/11/11 07:17:52;;;;;;;27.82;18.10;;;1.10;99.90;;;;;;1963270;72;21132;-74
2021/11/11 07:20:19;;;;;;;28.02;18.20;;;1.20;99.90;;;;;;1965163;72;21034;-74
2021/11/11 07:22:46;;;;;;;32.80;18.15;;;1.20;99.90;;;;;;1979927;72;21062;-74
2021/11/11 07:25:12;;;;;;;25.27;18.07;;;1.20;99.90;;;;;;1956239;71;21124;-75
2021/11/11 07:27:38;;;;;;;40.17;17.60;;;1.10;99.90;;;;;;1986455;70;21062;-75
2021/11/11 07:30:04;;;;;;;34.55;18.25;;;1.00;99.90;;;;;;1972806;70;21066;-74
2021/11/11 07:32:30;;;;;;;28.20;18.60;;;1.00;99.90;;;;;;1967407;72;21102;-77
2021/11/11 07:34:56;;;;;;;24.80;17.57;;;1.00;99.90;;;;;;1973978;70;21031;-74
2021/11/11 07:37:22;;;;;;;32.17;19.55;;;1.10;99.90;;;;;;1968385;70;21106;-74
2021/11/11 07:39:51;;;;;;;32.88;19.60;;;1.30;99.90;;;;;;1979248;70;21071;-75
2021/11/11 07:42:17;;;;;;;32.03;19.62;;;1.30;99.90;;;;;;1967467;70;21099;-74
2021/11/11 07:44:43;;;;;;;30.02;19.60;;;1.30;99.90;;;;;;1968039;71;21711;-74
2021/11/11 07:47:09;;;;;;;33.02;20.45;;;1.60;99.90;;;;;;1957923;71;21472;-78
2021/11/11 07:49:35;;;;;;;28.73;17.95;;;1.60;99.90;;;;;;1962001;71;21097;-74
2021/11/11 07:52:02;;;;;;;30.70;19.17;;;1.70;99.90;;;;;;1957661;71;22515;-74
2021/11/11 07:54:28;;;;;;;33.70;18.42;;;1.70;99.90;;;;;;1958964;71;21192;-76
2021/11/11 07:56:55;;;;;;;29.55;18.73;;;1.70;99.90;;;;;;1982138;70;21458;-75
2021/11/11 07:59:22;;;;;;;27.25;19.23;;;1.70;99.90;;;;;;1954982;71;21069;-75
2021/11/11 08:01:48;;;;;;;26.65;18.77;;;1.80;99.90;;;;;;1982846;71;21059;-74
2021/11/11 08:04:14;;;;;;;26.10;19.23;;;1.70;99.90;;;;;;1965356;72;21078;-75
2021/11/11 08:06:40;;;;;;;36.25;21.62;;;1.80;99.90;;;;;;1976721;70;21152;-76
2021/11/11 08:09:07;;;;;;;35.92;20.55;;;1.80;99.90;;;;;;1963712;70;21145;-74
2021/11/11 08:11:33;;;;;;;28.90;19.65;;;1.90;99.90;;;;;;1961442;70;21161;-75
2021/11/11 08:14:04;;;;;;;29.25;18.32;;;2.10;99.90;;;;;;1973174;71;21066;-76
2021/11/11 08:16:27;;;;;;;27.17;18.90;;;2.20;99.90;;;;;;1976848;71;21095;-75
2021/11/11 08:18:53;;;;;;;34.05;18.20;;;2.40;99.90;;;;;;1977756;71;21067;-75
2021/11/11 08:21:20;;;;;;;27.32;18.45;;;2.80;99.90;;;;;;1972843;70;21133;-74
2021/11/11 08:23:46;;;;;;;28.42;16.75;;;3.00;99.90;;;;;;1981309;71;21138;-76
2021/11/11 08:26:12;;;;;;;25.45;16.55;;;3.10;99.90;;;;;;1969568;70;21058;-74
2021/11/11 08:28:38;;;;;;;28.02;17.48;;;3.10;99.90;;;;;;1962474;71;21136;-75
2021/11/11 08:31:04;;;;;;;31.27;16.52;;;3.20;99.90;;;;;;1980772;70;21058;-75
2021/11/11 08:33:30;;;;;;;30.37;17.17;;;3.40;99.90;;;;;;1964576;71;21046;-75
2021/11/11 08:35:56;;;;;;;27.42;15.10;;;3.40;99.90;;;;;;1971258;71;22472;-75
2021/11/11 08:38:23;;;;;;;23.40;16.85;;;3.40;99.90;;;;;;1979607;70;21146;-75
2021/11/11 08:40:49;;;;;;;24.23;15.20;;;3.40;99.90;;;;;;1960939;72;21487;-74
2021/11/11 08:43:15;;;;;;;22.48;14.33;;;3.50;99.90;;;;;;1970536;71;21520;-76
2021/11/11 08:45:41;;;;;;;21.12;15.03;;;3.40;99.90;;;;;;1974473;70;21558;-74
2021/11/11 08:48:07;;;;;;;19.52;13.70;;;3.70;99.90;;;;;;1961493;70;21056;-75
2021/11/11 08:50:36;;;;;;;20.08;15.13;;;3.70;99.90;;;;;;1978237;71;21058;-75
2021/11/11 08:53:01;;;;;;;23.07;14.68;;;3.90;99.90;;;;;;1986415;70;21096;-75
2021/11/11 08:55:27;;;;;;;26.17;14.13;;;4.10;99.90;;;;;;1963085;72;21491;-76
2021/11/11 08:57:53;;;;;;;24.87;15.08;;;4.30;99.90;;;;;;1971510;72;21596;-74
2021/11/11 09:00:19;;;;;;;18.82;12.65;;;4.80;99.90;;;;;;1958424;70;21540;-74
2021/11/11 09:02:45;;;;;;;23.67;12.78;;;5.30;99.90;;;;;;1952683;71;21458;-74
2021/11/11 09:05:12;;;;;;;21.05;12.98;;;5.10;99.90;;;;;;1969136;70;21517;-74
2021/11/11 09:07:39;;;;;;;16.50;12.37;;;5.10;99.90;;;;;;1969389;70;21079;-75
2021/11/11 09:10:05;;;;;;;19.62;13.35;;;4.90;99.90;;;;;;1967431;71;21076;-74
2021/11/11 09:12:31;;;;;;;14.13;11.63;;;5.10;99.90;;;;;;1958439;70;21028;-75
2021/11/11 09:14:58;;;;;;;20.57;12.40;;;5.50;99.90;;;;;;1955114;71;21076;-75
2021/11/11 09:17:24;;;;;;;20.43;11.53;;;5.80;99.90;;;;;;1970284;70;21074;-75
2021/11/11 09:19:50;;;;;;;15.68;11.65;;;5.90;99.90;;;;;;1983907;70;21058;-73
2021/11/11 09:22:16;;;;;;;16.48;11.88;;;5.70;99.90;;;;;;1981490;70;21125;-75
2021/11/11 09:24:42;;;;;;;19.98;11.90;;;5.50;99.90;;;;;;1977729;70;21060;-75
2021/11/11 09:27:08;;;;;;;19.65;11.43;;;5.90;99.90;;;;;;1976377;70;21066;-75
2021/11/11 09:29:35;;;;;;;18.73;11.45;;;6.10;99.90;;;;;;1976261;72;21128;-75
2021/11/11 09:32:01;;;;;;;21.25;11.48;;;6.60;99.90;;;;;;1965246;72;21197;-74
2021/11/11 09:34:27;;;;;;;16.75;11.53;;;6.80;99.90;;;;;;1980469;70;21431;-75
2021/11/11 09:36:53;;;;;;;26.42;13.18;;;7.20;99.90;;;;;;1968983;71;21059;-74
2021/11/11 09:39:19;;;;;;;18.12;12.35;;;7.00;99.90;;;;;;1982534;70;21599;-75
2021/11/11 09:41:45;;;;;;;17.65;10.85;;;7.20;99.90;;;;;;1977214;71;21067;-74
2021/11/11 09:44:12;;;;;;;24.15;12.47;;;7.10;99.90;;;;;;1971629;72;21134;-75
2021/11/11 09:46:38;;;;;;;17.05;11.80;;;6.90;99.90;;;;;;1965311;70;21091;-75
2021/11/11 09:49:04;;;;;;;19.10;11.60;;;7.40;99.90;;;;;;1958011;71;21058;-75
2021/11/11 09:51:30;;;;;;;15.38;11.05;;;7.80;99.90;;;;;;1979349;71;21128;-75
2021/11/11 09:59:11;;;;;;;13.28;9.78;;;8.00;99.90;;;;;;1979818;71;21607;-74
2021/11/11 10:01:37;;;;;;;17.07;10.78;;;8.40;99.90;;;;;;1972783;72;21478;-75
2021/11/11 10:04:03;;;;;;;18.17;10.75;;;8.80;99.90;;;;;;1981265;70;21599;-75
2021/11/11 10:06:31;;;;;;;14.05;10.50;;;8.90;99.90;;;;;;1973945;72;21493;-75
2021/11/11 10:08:57;;;;;;;19.40;11.53;;;8.70;99.90;;;;;;1964886;70;21071;-75
2021/11/11 10:11:26;;;;;;;16.32;12.37;;;8.70;99.90;;;;;;1963153;70;21063;-75
2021/11/11 10:13:52;;;;;;;19.40;11.15;;;8.70;99.90;;;;;;1970914;70;21576;-75
2021/11/11 10:16:18;;;;;;;21.42;11.55;;;9.20;99.90;;;;;;1962436;71;21276;-75
2021/11/11 10:18:44;;;;;;;21.37;11.78;;;9.50;99.90;;;;;;1971110;71;21451;-75
2021/11/11 10:21:10;;;;;;;18.57;11.78;;;9.50;99.90;;;;;;1979179;70;21059;-75
2021/11/11 10:23:36;;;;;;;19.07;10.82;;;9.90;99.90;;;;;;1974008;70;21067;-76
2021/11/11 10:26:03;;;;;;;20.82;11.48;;;10.20;99.90;;;;;;1972645;71;21059;-75
2021/11/11 10:28:29;;;;;;;29.85;13.30;;;10.10;99.90;;;;;;1963216;72;21129;-75
2021/11/11 10:30:57;;;;;;;17.77;12.70;;;9.70;99.90;;;;;;1973299;72;21135;-76
2021/11/11 10:33:23;;;;;;;18.87;13.55;;;9.80;99.90;;;;;;1976434;71;21174;-75
2021/11/11 10:35:55;;;;;;;20.57;13.93;;;9.80;99.90;;;;;;1965436;71;21115;-74
2021/11/11 10:38:16;;;;;;;21.12;13.30;;;10.20;99.90;;;;;;1969036;70;21169;-75
2021/11/11 10:40:43;;;;;;;28.25;17.23;;;10.20;99.90;;;;;;1966256;70;21136;-76
2021/11/11 10:43:10;;;;;;;23.38;15.13;;;10.00;99.90;;;;;;1960659;71;21058;-76
2021/11/11 10:45:36;;;;;;;22.20;15.63;;;10.00;99.90;;;;;;1975960;70;21046;-77
2021/11/11 10:48:02;;;;;;;26.62;14.95;;;10.00;99.90;;;;;;1975680;70;21066;-76
2021/11/11 10:50:28;;;;;;;18.82;14.38;;;10.50;99.90;;;;;;1965605;72;21110;-76
2021/11/11 10:52:54;;;;;;;23.52;14.33;;;10.40;99.90;;;;;;1974482;70;21258;-75
2021/11/11 10:55:21;;;;;;;17.92;13.28;;;10.50;99.90;;;;;;1974148;70;21541;-76
2021/11/11 10:57:49;;;;;;;22.20;13.93;;;11.30;99.90;;;;;;1968297;70;21150;-76
2021/11/11 11:00:15;;;;;;;16.42;12.68;;;11.80;99.90;;;;;;1972423;71;21127;-75
2021/11/11 11:02:41;;;;;;;24.30;14.20;;;11.90;99.90;;;;;;1959252;71;21171;-76
2021/11/11 11:05:07;;;;;;;18.37;13.60;;;11.50;99.90;;;;;;1978292;70;21055;-76
2021/11/11 11:07:34;;;;;;;19.27;13.68;;;11.10;99.90;;;;;;1981978;70;21062;-76
2021/11/11 11:10:00;;;;;;;20.77;14.18;;;11.40;99.90;;;;;;1969562;70;21137;-76
2021/11/11 11:12:26;;;;;;;22.98;14.45;;;11.10;99.90;;;;;;1979124;71;21144;-76
2021/11/11 11:14:53;;;;;;;22.82;14.60;;;10.60;99.90;;;;;;1988126;70;21491;-76
2021/11/11 11:17:19;;;;;;;26.50;15.72;;;10.50;99.90;;;;;;1959625;71;21145;-76
2021/11/11 11:19:45;;;;;;;25.27;15.80;;;10.80;99.90;;;;;;1961077;72;21050;-75
2021/11/11 11:22:11;;;;;;;23.45;15.32;;;10.60;99.90;;;;;;1964761;71;21098;-76
2021/11/11 11:24:37;;;;;;;26.10;15.68;;;10.80;99.90;;;;;;1954875;71;21054;-76
2021/11/11 11:27:05;;;;;;;26.90;15.48;;;11.10;99.90;;;;;;1952832;70;21258;-76
2021/11/11 11:29:55;;;;;;;20.12;14.18;;;11.30;99.90;;;;;;1964944;71;21458;-76
2021/11/11 11:32:17;;;;;;;22.10;14.23;;;11.80;99.90;;;;;;1977662;70;21088;-75
2021/11/11 11:34:38;;;;;;;24.10;14.93;;;11.40;99.90;;;;;;1968763;71;21503;-74
2021/11/11 11:37:05;;;;;;;26.35;19.52;;;11.90;99.90;;;;;;1964098;70;21471;-74
2021/11/11 11:39:31;;;;;;;23.95;14.93;;;12.30;99.90;;;;;;1986447;70;21515;-74
2021/11/11 11:41:58;;;;;;;21.12;14.68;;;12.30;99.90;;;;;;1982266;70;21446;-74
2021/11/11 11:44:24;;;;;;;28.17;15.32;;;12.40;99.90;;;;;;1973142;71;21200;-74
2021/11/11 11:46:51;;;;;;;28.77;14.90;;;12.60;99.90;;;;;;1976877;70;21087;-75
2021/11/11 11:49:17;;;;;;;24.20;15.53;;;12.70;99.90;;;;;;1971440;71;21524;-74
2021/11/11 11:51:43;;;;;;;32.08;16.32;;;12.60;99.90;;;;;;1974494;72;21067;-76
2021/11/11 11:54:22;;;;;;;22.50;14.80;;;12.50;99.90;;;;;;1976789;71;21135;-75
2021/11/11 11:56:48;;;;;;;30.05;15.93;;;12.40;99.90;;;;;;1957797;70;21608;-75
2021/11/11 11:59:15;;;;;;;23.52;16.90;;;12.30;99.90;;;;;;1969190;71;21075;-75
2021/11/11 12:01:55;;;;;;;24.05;16.57;;;12.90;99.90;;;;;;1978110;71;21100;-76
2021/11/11 12:04:26;;;;;;;25.12;17.07;;;12.80;99.90;;;;;;1957210;71;21099;-76
2021/11/11 12:14:34;;;;;;;24.98;15.08;;;12.70;99.90;;;;;;1969732;71;21083;-76
2021/11/11 12:17:13;;;;;;;19.62;12.78;;;13.30;99.90;;;;;;1974450;70;21587;-77
2021/11/11 12:34:19;;;;;;;20.75;14.25;;;13.20;99.90;;;;;;1985926;70;21095;-75
2021/11/11 12:40:43;;;;;;;20.12;13.18;;;14.10;99.90;;;;;;1985447;72;21074;-75
2021/11/11 12:43:09;;;;;;;23.38;13.48;;;14.30;99.90;;;;;;1963203;71;21074;-76
2021/11/11 12:45:35;;;;;;;22.13;14.40;;;14.40;99.90;;;;;;1932405;72;21031;-75
2021/11/11 12:48:01;;;;;;;23.15;13.95;;;14.20;99.90;;;;;;1971323;71;21560;-76
2021/11/11 12:50:28;;;;;;;16.85;12.40;;;13.60;99.90;;;;;;1970605;71;21058;-75
2021/11/11 12:52:54;;;;;;;25.48;12.90;;;13.40;99.90;;;;;;1948290;71;21071;-75
2021/11/11 12:55:20;;;;;;;19.45;13.20;;;13.30;99.90;;;;;;1949917;71;21032;-77
2021/11/11 12:57:46;;;;;;;21.45;13.32;;;13.40;99.90;;;;;;1972153;71;21116;-76
2021/11/11 13:00:13;;;;;;;21.50;13.38;;;13.40;99.90;;;;;;1956853;71;21518;-76
2021/11/11 13:02:39;;;;;;;19.50;13.62;;;13.90;99.90;;;;;;1974304;71;21540;-75
2021/11/11 13:05:05;;;;;;;21.05;13.25;;;14.10;99.90;;;;;;1961632;71;21537;-75
2021/11/11 13:07:31;;;;;;;22.45;14.60;;;14.00;99.90;;;;;;1964253;71;21490;-76
2021/11/11 13:09:57;;;;;;;17.65;13.53;;;14.00;99.90;;;;;;1937644;72;21125;-77
2021/11/11 13:12:25;;;;;;;21.93;14.83;;;13.80;99.90;;;;;;1936510;71;21045;-76
2021/11/11 13:14:51;;;;;;;17.62;14.20;;;13.50;99.90;;;;;;1921840;71;21055;-77
2021/11/11 13:17:17;;;;;;;25.82;15.43;;;13.60;99.90;;;;;;1945172;71;21075;-75
2021/11/11 13:19:44;;;;;;;19.95;13.90;;;13.70;99.90;;;;;;1946171;71;21263;-75
2021/11/11 13:22:38;;;;;;;22.48;13.95;;;13.70;99.90;;;;;;1939100;71;21468;-75
2021/11/11 13:24:57;;;;;;;23.05;15.40;;;14.10;99.90;;;;;;1959297;71;21329;-76
2021/11/11 13:27:34;;;;;;;20.12;14.73;;;13.90;99.90;;;;;;1965403;71;21088;-74